createdAt,value
2018-04-24T00:04:42.856Z,16.10
2018-04-24T00:09:45.917Z,16.30
2018-04-24T00:14:48.490Z,16.40
2018-04-24T00:19:51.850Z,16.40
2018-04-24T00:24:54.437Z,16.40
2018-04-24T00:29:57.021Z,16.40
2018-04-24T00:34:59.623Z,16.40
2018-04-24T00:40:02.209Z,16.30
2018-04-24T00:45:04.847Z,16.20
2018-04-24T00:50:07.517Z,16.00
2018-04-24T00:55:10.093Z,15.90
2018-04-24T01:00:13.441Z,15.70
2018-04-24T01:05:16.411Z,15.70
2018-04-24T01:10:20.140Z,15.60
2018-04-24T01:15:23.481Z,15.60
2018-04-24T01:20:26.041Z,15.60
2018-04-24T01:25:29.380Z,15.50
2018-04-24T01:30:31.985Z,15.50
2018-04-24T01:35:34.557Z,15.40
2018-04-24T01:40:37.889Z,15.30
2018-04-24T01:45:41.230Z,15.20
2018-04-24T01:50:43.801Z,15.20
2018-04-24T01:55:47.932Z,15.10
2018-04-24T02:00:51.255Z,15.00
2018-04-24T02:05:54.597Z,14.90
2018-04-24T02:10:57.213Z,14.90
2018-04-24T02:15:59.816Z,14.90
2018-04-24T02:21:02.372Z,14.90
2018-04-24T02:26:04.953Z,14.90
2018-04-24T02:31:07.560Z,14.90
2018-04-24T02:36:10.913Z,14.90
2018-04-24T02:41:13.495Z,14.90
2018-04-24T02:46:16.069Z,15.10
2018-04-24T02:51:19.423Z,15.20
2018-04-24T02:56:22.000Z,15.10
2018-04-24T03:01:24.579Z,15.20
2018-04-24T03:06:27.900Z,15.10
2018-04-24T03:11:30.475Z,15.10
2018-04-24T03:16:33.810Z,15.20
2018-04-24T03:21:37.152Z,15.20
2018-04-24T03:26:39.746Z,15.20
2018-04-24T03:31:42.332Z,15.20
2018-04-24T03:36:44.948Z,15.30
2018-04-24T03:41:47.532Z,15.40
2018-04-24T03:46:50.707Z,15.40
2018-04-24T03:51:53.274Z,15.50
2018-04-24T03:56:55.833Z,15.50
2018-04-24T04:01:59.044Z,15.50
2018-04-24T04:07:01.600Z,15.60
2018-04-24T04:12:04.205Z,15.60
2018-04-24T04:17:19.735Z,15.70
2018-04-24T04:22:35.069Z,15.60
2018-04-24T04:27:39.081Z,15.60
2018-04-24T04:32:41.788Z,15.60
2018-04-24T04:37:44.356Z,15.70
2018-04-24T04:42:48.343Z,15.90
2018-04-24T04:47:51.513Z,15.80
2018-04-24T04:52:55.046Z,15.90
2018-04-24T04:57:57.626Z,15.90
2018-04-24T05:03:01.845Z,16.00
2018-04-24T05:08:05.189Z,16.00
2018-04-24T05:13:10.296Z,16.00
2018-04-24T05:18:12.866Z,16.10
2018-04-24T05:23:16.244Z,16.10
2018-04-24T05:28:20.349Z,16.70
2018-04-24T05:33:22.936Z,16.70
2018-04-24T05:38:25.527Z,16.80
2018-04-24T05:43:29.999Z,16.70
2018-04-24T05:48:33.332Z,16.80
2018-04-24T05:53:37.245Z,16.80
2018-04-24T05:58:45.713Z,16.80
2018-04-24T06:03:48.720Z,16.90
2018-04-24T06:08:51.637Z,17.00
2018-04-24T06:14:09.058Z,17.00
2018-04-24T06:19:12.387Z,17.20
2018-04-24T06:24:17.658Z,17.30
2018-04-24T06:29:20.233Z,17.40
2018-04-24T06:34:24.154Z,16.30
2018-04-24T06:39:30.932Z,16.80
2018-04-24T06:44:33.533Z,16.70
2018-04-24T06:49:37.982Z,17.30
2018-04-24T06:54:44.153Z,17.60
2018-04-24T06:59:46.708Z,17.60
2018-04-24T07:04:49.289Z,17.70
2018-04-24T07:09:52.492Z,17.60
2018-04-24T07:14:56.660Z,17.70
2018-04-24T07:19:59.251Z,17.60
2018-04-24T07:25:01.830Z,17.80
2018-04-24T07:30:04.648Z,17.80
2018-04-24T07:35:07.236Z,18.20
2018-04-24T07:40:10.580Z,18.50
2018-04-24T07:45:14.829Z,18.50
2018-04-24T07:50:17.414Z,18.50
2018-04-24T07:55:22.564Z,18.60
2018-04-24T08:00:25.145Z,18.60
2018-04-24T08:05:27.737Z,18.60
2018-04-24T08:10:30.793Z,18.80
2018-04-24T08:15:34.918Z,18.80
2018-04-24T08:20:38.012Z,19.10
2018-04-24T08:25:43.293Z,19.20
2018-04-24T08:30:45.881Z,19.40
2018-04-24T08:35:49.414Z,19.50
2018-04-24T08:40:52.435Z,19.50
2018-04-24T08:45:55.024Z,19.60
2018-04-24T08:50:58.761Z,19.10
2018-04-24T08:56:02.019Z,19.40
2018-04-24T09:01:05.700Z,19.50
2018-04-24T09:06:08.273Z,19.40
2018-04-24T09:11:11.513Z,19.70
2018-04-24T09:16:15.045Z,19.50
2018-04-24T09:21:18.676Z,19.50
2018-04-24T09:26:22.453Z,20.20
2018-04-24T09:36:56.697Z,19.80
2018-04-24T09:41:59.260Z,20.30
2018-04-24T09:47:01.823Z,20.40
2018-04-24T09:52:04.712Z,20.40
2018-04-24T09:57:07.871Z,20.50
2018-04-24T10:02:10.742Z,20.70
2018-04-24T10:07:13.557Z,20.40
2018-04-24T10:12:16.141Z,20.60
2018-04-24T10:17:19.405Z,20.90
2018-04-24T10:22:22.767Z,21.80
2018-04-24T10:27:25.367Z,21.70
2018-04-24T10:32:28.833Z,21.60
2018-04-24T10:37:31.480Z,21.50
2018-04-24T10:42:37.268Z,22.30
2018-04-24T10:47:39.866Z,22.30
2018-04-24T10:52:46.785Z,22.30
2018-04-24T10:57:49.854Z,22.60
2018-04-24T11:02:52.441Z,22.20
2018-04-24T11:07:56.785Z,22.30
2018-04-24T11:12:59.340Z,22.40
2018-04-24T11:18:03.083Z,22.10
2018-04-24T11:23:06.899Z,22.30
2018-04-24T11:28:10.241Z,22.30
2018-04-24T11:33:12.812Z,22.30
2018-04-24T11:38:15.661Z,22.30
2018-04-24T11:43:18.868Z,22.60
2018-04-24T11:48:21.452Z,22.40
2018-04-24T11:53:24.781Z,23.40
2018-04-24T11:58:27.341Z,23.40
2018-04-24T12:03:29.975Z,23.40
2018-04-24T12:08:32.553Z,23.50
2018-04-24T12:13:36.500Z,22.90
2018-04-24T12:18:39.555Z,22.90
2018-04-24T12:23:42.147Z,23.20
2018-04-24T12:28:45.148Z,23.50
2018-04-24T12:33:47.720Z,23.50
2018-04-24T12:38:50.298Z,23.70
2018-04-24T12:43:59.670Z,23.50
2018-04-24T12:49:04.400Z,23.50
2018-04-24T12:54:07.317Z,23.40
2018-04-24T12:59:10.978Z,23.80
2018-04-24T13:04:14.180Z,23.90
2018-04-24T13:09:17.748Z,23.70
2018-04-24T13:14:21.124Z,24.30
2018-04-24T13:19:23.710Z,24.20
2018-04-24T13:24:26.277Z,24.50
2018-04-24T13:34:39.585Z,24.10
2018-04-24T13:39:42.149Z,24.50
2018-04-24T13:44:47.474Z,25.30
2018-04-24T13:49:50.730Z,25.30
2018-04-24T13:54:54.263Z,25.20
2018-04-24T13:59:57.591Z,24.90
2018-04-24T14:05:00.400Z,24.90
2018-04-24T14:10:02.983Z,25.70
2018-04-24T14:15:06.005Z,25.80
2018-04-24T14:20:08.929Z,25.40
2018-04-24T14:25:12.005Z,26.00
2018-04-24T14:30:16.112Z,26.40
2018-04-24T14:35:18.721Z,26.40
2018-04-24T14:40:23.133Z,25.90
2018-04-24T14:45:26.590Z,25.80
2018-04-24T14:50:30.486Z,26.20
2018-04-24T14:55:33.053Z,26.20
2018-04-24T15:00:38.857Z,26.40
2018-04-24T15:05:41.437Z,26.10
2018-04-24T15:10:44.108Z,25.80
2018-04-24T15:15:47.148Z,25.70
2018-04-24T15:20:49.749Z,25.40
2018-04-24T15:25:52.752Z,25.80
2018-04-24T15:30:55.539Z,26.40
2018-04-24T15:35:58.466Z,26.80
2018-04-24T15:41:01.037Z,26.60
2018-04-24T15:46:04.265Z,26.70
2018-04-24T15:51:07.500Z,26.10
2018-04-24T15:56:11.237Z,26.30
2018-04-24T16:01:14.493Z,26.10
2018-04-24T16:06:17.662Z,26.20
2018-04-24T16:11:20.972Z,26.70
2018-04-24T16:16:25.054Z,26.80
2018-04-24T16:21:34.314Z,26.30
2018-04-24T16:26:36.869Z,25.90
2018-04-24T16:31:40.108Z,26.40
2018-04-24T16:36:42.684Z,26.70
2018-04-24T16:41:46.032Z,26.90
2018-04-24T16:46:49.070Z,26.90
2018-04-24T16:51:53.537Z,26.30
2018-04-24T16:56:56.134Z,26.40
2018-04-24T17:01:59.019Z,26.70
2018-04-24T17:07:02.294Z,26.50
2018-04-24T17:12:05.150Z,26.30
2018-04-24T17:17:07.723Z,26.70
2018-04-24T17:22:11.881Z,26.90
2018-04-24T17:27:17.734Z,27.20
2018-04-24T17:32:20.937Z,27.40
2018-04-24T17:37:23.516Z,26.90
2018-04-24T17:42:26.103Z,26.60
2018-04-24T17:47:29.368Z,26.50
2018-04-24T17:52:33.072Z,26.30
2018-04-24T17:57:36.735Z,26.00
2018-04-24T18:02:39.321Z,25.80
2018-04-24T18:07:42.419Z,25.50
2018-04-24T18:12:45.679Z,25.30
2018-04-24T18:17:49.021Z,24.60
2018-04-24T18:22:51.616Z,24.60
2018-04-24T18:27:54.229Z,24.20
2018-04-24T18:32:56.808Z,23.90
2018-04-24T18:37:59.447Z,23.60
2018-04-24T18:43:08.657Z,23.30
2018-04-24T18:48:11.812Z,23.10
2018-04-24T18:53:14.691Z,22.80
2018-04-24T18:58:17.915Z,22.60
2018-04-24T19:03:20.503Z,22.30
2018-04-24T19:08:24.498Z,22.10
2018-04-24T19:13:28.110Z,21.70
2018-04-24T19:18:36.993Z,21.50
2018-04-24T19:23:40.480Z,21.40
2018-04-24T19:28:43.521Z,21.30
2018-04-24T19:33:46.102Z,21.10
2018-04-24T20:25:10.682Z,20.70
2018-04-24T20:30:14.081Z,18.90
2018-04-24T20:35:17.415Z,19.10
2018-04-24T20:40:19.987Z,19.10
2018-04-24T20:45:23.324Z,19.00
2018-04-24T20:50:25.900Z,19.00
2018-04-24T20:55:30.235Z,18.90
2018-04-24T21:00:36.085Z,18.80
2018-04-24T21:05:39.531Z,18.80
2018-04-24T21:10:46.385Z,18.60
2018-04-24T21:15:49.030Z,18.60
2018-04-24T21:20:52.813Z,18.50
2018-04-24T21:25:55.381Z,18.50
2018-04-24T21:30:57.966Z,18.60
2018-04-24T21:36:01.941Z,18.50
2018-04-24T21:41:04.576Z,18.50
2018-04-24T21:46:08.940Z,18.40
2018-04-24T21:51:13.472Z,18.40
2018-04-24T21:56:16.701Z,18.30
2018-04-24T22:01:19.854Z,18.40
2018-04-24T22:06:22.440Z,18.20
2018-04-24T22:11:25.649Z,18.20
2018-04-24T22:16:28.221Z,18.10
2018-04-24T22:21:30.797Z,18.10
2018-04-24T22:31:43.877Z,18.00
2018-04-24T22:36:47.770Z,17.90
2018-04-24T22:41:50.351Z,17.80
2018-04-24T22:46:53.301Z,17.90
2018-04-24T22:51:56.638Z,17.60
2018-04-24T22:56:59.774Z,17.60
2018-04-24T23:02:02.702Z,17.50
2018-04-24T23:07:05.299Z,17.50
2018-04-24T23:12:21.439Z,17.30
2018-04-24T23:17:37.126Z,17.20
2018-04-24T23:22:41.433Z,17.20
2018-04-24T23:27:44.451Z,17.10
2018-04-24T23:32:47.336Z,17.00
2018-04-24T23:37:50.730Z,17.00
2018-04-24T23:42:54.890Z,16.80
2018-04-24T23:47:57.747Z,16.80
2018-04-24T23:53:03.026Z,16.70
2018-04-24T23:58:06.656Z,16.70
